Time;durP1;ratioP1;P1;durP2;ratioP2;P2;SDS_P1;SDS_P2;PMS_P1;PMS_P2;Temp;Humidity;BMP_temperature;BMP_pressure;BME280_temperature;BME280_humidity;BME280_pressure;Samples;Min_cycle;Max_cycle;Signal;HPM_P1;HPM_P2
2021/12/08 00:01:45;;;;;;;3.28;0.80;;;4.90;94.50;;;;;;4818814;29;20050;-79
2021/12/08 00:04:12;;;;;;;3.53;1.23;;;4.90;94.50;;;;;;4831576;29;20057;-79
2021/12/08 00:06:38;;;;;;;2.45;0.70;;;4.90;94.50;;;;;;4834931;29;20050;-78
2021/12/08 00:09:34;;;;;;;1.95;0.60;;;4.90;94.50;;;;;;4847027;29;20046;-79
2021/12/08 00:14:40;;;;;;;3.38;1.05;;;4.90;94.50;;;;;;4835262;29;20507;-78
2021/12/08 00:17:07;;;;;;;3.63;1.23;;;4.90;94.50;;;;;;4832447;29;20098;-79
2021/12/08 00:19:34;;;;;;;2.90;1.00;;;4.90;94.50;;;;;;4830559;29;20050;-79
2021/12/08 00:22:01;;;;;;;3.38;1.10;;;4.90;94.60;;;;;;4829048;29;20126;-80
2021/12/08 00:24:28;;;;;;;4.35;1.30;;;4.90;94.80;;;;;;4833445;29;20110;-79
2021/12/08 00:26:56;;;;;;;2.65;0.90;;;4.90;94.60;;;;;;4815544;29;20648;-79
2021/12/08 00:29:23;;;;;;;2.78;1.02;;;4.90;94.60;;;;;;4829382;29;20054;-79
2021/12/08 00:31:50;;;;;;;4.10;1.52;;;4.90;94.60;;;;;;4816426;29;20072;-79
2021/12/08 00:34:17;;;;;;;2.80;1.33;;;4.90;94.60;;;;;;4844344;29;20058;-79
2021/12/08 00:36:48;;;;;;;2.75;1.20;;;4.90;94.60;;;;;;4831021;29;20054;-79
2021/12/08 00:39:16;;;;;;;3.38;1.15;;;4.90;94.70;;;;;;4829653;29;20049;-79
2021/12/08 00:41:43;;;;;;;4.82;0.90;;;4.90;94.70;;;;;;4846494;29;20836;-79
2021/12/08 00:44:11;;;;;;;2.55;1.10;;;4.80;94.70;;;;;;4832567;29;20045;-78
2021/12/08 00:46:38;;;;;;;1.80;0.85;;;4.80;94.70;;;;;;4827956;29;20053;-78
2021/12/08 00:49:12;;;;;;;2.28;1.00;;;4.90;94.70;;;;;;4831639;29;20145;-79
2021/12/08 00:51:39;;;;;;;2.00;0.93;;;4.90;94.80;;;;;;4831371;29;20053;-79
2021/12/08 00:54:06;;;;;;;3.28;1.10;;;4.90;94.80;;;;;;4829056;29;20101;-79
2021/12/08 00:56:35;;;;;;;2.45;0.98;;;4.90;94.80;;;;;;4830676;29;20130;-80
2021/12/08 00:59:03;;;;;;;3.03;1.00;;;4.90;94.80;;;;;;4846995;29;20109;-79
2021/12/08 01:01:30;;;;;;;2.60;0.82;;;4.90;94.80;;;;;;4830868;29;20057;-79
2021/12/08 01:03:58;;;;;;;5.18;1.15;;;4.90;94.80;;;;;;4833878;29;20045;-79
2021/12/08 01:06:25;;;;;;;3.70;1.15;;;4.90;94.80;;;;;;4830163;29;20140;-78
2021/12/08 01:08:52;;;;;;;3.08;1.00;;;4.90;94.80;;;;;;4828347;29;20442;-79
2021/12/08 01:11:21;;;;;;;2.75;1.15;;;5.00;94.90;;;;;;4830154;29;20060;-78
2021/12/08 01:13:50;;;;;;;2.47;1.00;;;4.90;94.90;;;;;;4868027;29;20057;-80
2021/12/08 01:16:20;;;;;;;2.95;1.15;;;4.90;94.90;;;;;;4827779;29;20078;-79
2021/12/08 01:18:47;;;;;;;3.25;0.90;;;5.00;94.90;;;;;;4828084;29;20081;-79
2021/12/08 01:21:14;;;;;;;1.95;0.70;;;5.00;94.90;;;;;;4830153;29;20053;-79
2021/12/08 01:23:42;;;;;;;2.83;0.82;;;5.00;94.90;;;;;;4844800;29;20470;-79
2021/12/08 01:26:09;;;;;;;1.92;0.73;;;5.00;94.90;;;;;;4829864;29;20447;-79
2021/12/08 01:28:36;;;;;;;1.88;0.80;;;5.00;94.90;;;;;;4828221;29;20060;-79
2021/12/08 01:31:05;;;;;;;2.38;0.80;;;5.00;94.90;;;;;;4852184;29;20046;-79
2021/12/08 01:33:34;;;;;;;2.47;0.70;;;5.10;95.00;;;;;;4830395;29;20528;-79
2021/12/08 01:36:04;;;;;;;2.72;0.90;;;5.00;94.90;;;;;;4845273;29;20050;-79
2021/12/08 01:38:33;;;;;;;1.83;0.93;;;5.10;95.00;;;;;;4832730;29;20392;-79
2021/12/08 01:41:01;;;;;;;2.20;0.93;;;5.10;95.00;;;;;;4840469;29;20073;-79
2021/12/08 01:43:40;;;;;;;3.03;1.10;;;5.10;95.00;;;;;;4832653;29;20077;-79
2021/12/08 01:46:11;;;;;;;3.13;0.90;;;5.10;95.00;;;;;;4832719;29;20058;-79
2021/12/08 01:48:40;;;;;;;2.85;1.45;;;5.10;95.00;;;;;;4866364;29;20046;-79
2021/12/08 01:51:17;;;;;;;2.00;1.00;;;5.20;95.10;;;;;;4843727;29;20056;-79
2021/12/08 01:53:51;;;;;;;3.53;0.90;;;5.20;95.10;;;;;;4843130;29;20053;-78
2021/12/08 01:56:21;;;;;;;1.65;0.70;;;5.20;95.10;;;;;;4841899;29;20444;-79
2021/12/08 01:58:51;;;;;;;2.13;0.85;;;5.20;95.10;;;;;;4851814;29;20061;-78
2021/12/08 02:01:25;;;;;;;1.63;0.60;;;5.20;95.10;;;;;;4837221;29;20051;-78
2021/12/08 02:03:52;;;;;;;1.25;0.50;;;5.30;95.10;;;;;;4846069;29;20049;-79
2021/12/08 02:06:22;;;;;;;2.05;0.70;;;5.30;95.10;;;;;;4823496;29;20057;-79
2021/12/08 02:08:52;;;;;;;1.45;0.70;;;5.30;95.10;;;;;;4831926;29;20451;-79
2021/12/08 02:11:21;;;;;;;1.85;0.77;;;5.30;95.10;;;;;;4826559;29;20106;-78
2021/12/08 02:13:51;;;;;;;1.60;0.50;;;5.30;95.10;;;;;;4829541;29;20471;-79
2021/12/08 02:16:19;;;;;;;0.90;0.40;;;5.40;95.10;;;;;;4825761;29;20449;-78
2021/12/08 02:18:48;;;;;;;1.15;0.60;;;5.40;95.10;;;;;;4846054;29;20570;-79
2021/12/08 02:21:34;;;;;;;1.27;0.50;;;5.40;95.10;;;;;;4845376;29;20046;-80
2021/12/08 02:24:05;;;;;;;1.48;0.57;;;5.50;95.10;;;;;;4842908;29;20102;-78
2021/12/08 02:26:33;;;;;;;0.85;0.35;;;5.50;95.10;;;;;;4853805;29;20512;-78
2021/12/08 02:29:04;;;;;;;1.38;0.40;;;5.50;95.10;;;;;;4828382;29;20049;-78
2021/12/08 02:32:01;;;;;;;1.02;0.45;;;5.50;95.10;;;;;;4829993;29;20060;-78
2021/12/08 02:48:11;;;;;;;1.08;0.40;;;5.60;95.10;;;;;;4859799;29;20046;-78
2021/12/08 02:50:41;;;;;;;1.90;0.50;;;5.60;95.10;;;;;;4829941;29;20447;-78
2021/12/08 02:53:10;;;;;;;1.48;0.47;;;5.70;95.10;;;;;;4848155;29;20052;-78
2021/12/08 02:55:39;;;;;;;1.40;0.80;;;5.70;95.10;;;;;;4826751;29;20046;-78
2021/12/08 02:58:06;;;;;;;2.70;0.70;;;5.70;95.10;;;;;;4854117;29;20076;-79
2021/12/08 03:00:37;;;;;;;1.77;0.80;;;5.70;95.20;;;;;;4828068;29;20845;-78
2021/12/08 03:03:05;;;;;;;1.92;0.65;;;5.70;95.20;;;;;;4845015;29;20226;-79
2021/12/08 03:05:33;;;;;;;1.52;0.45;;;5.80;95.20;;;;;;4834466;29;20054;-78
2021/12/08 03:08:03;;;;;;;1.80;0.70;;;5.80;95.20;;;;;;4845843;29;20511;-78
2021/12/08 03:10:34;;;;;;;3.58;1.02;;;5.80;95.20;;;;;;4844959;29;20053;-78
2021/12/08 03:13:02;;;;;;;2.78;0.80;;;5.90;95.20;;;;;;4852468;29;20112;-79
2021/12/08 03:15:29;;;;;;;1.33;0.52;;;5.80;95.40;;;;;;4828803;29;20069;-79
2021/12/08 03:17:56;;;;;;;1.60;0.60;;;5.80;95.20;;;;;;4821883;29;20054;-79
2021/12/08 03:20:37;;;;;;;2.83;0.60;;;5.70;95.20;;;;;;4814024;29;20042;-79
2021/12/08 03:23:06;;;;;;;1.77;0.40;;;5.70;95.30;;;;;;4835880;29;20065;-78
2021/12/08 03:25:39;;;;;;;1.67;0.63;;;5.70;95.30;;;;;;4829908;29;20133;-78
2021/12/08 03:28:16;;;;;;;1.02;0.50;;;5.60;95.30;;;;;;4811687;29;20097;-78
2021/12/08 03:33:44;;;;;;;1.52;0.50;;;5.60;95.50;;;;;;4854446;29;20071;-77
2021/12/08 03:36:12;;;;;;;2.83;0.60;;;5.60;95.50;;;;;;4852701;29;20075;-78
2021/12/08 03:38:39;;;;;;;2.40;0.70;;;5.50;95.50;;;;;;4836243;29;20143;-78
2021/12/08 03:41:08;;;;;;;2.50;1.05;;;5.60;95.60;;;;;;4845705;29;20053;-79
2021/12/08 03:43:35;;;;;;;2.28;0.60;;;5.70;95.60;;;;;;4846864;29;20046;-79
2021/12/08 03:46:04;;;;;;;1.23;0.45;;;5.70;95.50;;;;;;4828675;29;20140;-79
2021/12/08 03:48:44;;;;;;;1.92;0.50;;;5.70;95.80;;;;;;4816598;29;20077;-78
2021/12/08 03:51:12;;;;;;;1.95;0.60;;;5.80;95.50;;;;;;4859565;29;20057;-78
2021/12/08 03:53:39;;;;;;;2.20;0.68;;;5.80;95.50;;;;;;4829211;29;20073;-78
2021/12/08 03:56:06;;;;;;;3.15;0.90;;;5.90;95.50;;;;;;4827466;29;20058;-78
2021/12/08 03:58:33;;;;;;;3.38;0.70;;;5.90;95.50;;;;;;4829693;29;20057;-79
2021/12/08 04:01:02;;;;;;;3.97;0.93;;;6.00;95.50;;;;;;4804779;29;20054;-78
2021/12/08 04:03:32;;;;;;;1.95;0.50;;;6.00;95.50;;;;;;4826026;29;20069;-78
2021/12/08 04:06:13;;;;;;;3.13;0.70;;;6.00;95.40;;;;;;4844925;29;20146;-76
2021/12/08 04:08:53;;;;;;;1.50;0.70;;;6.10;95.40;;;;;;4850311;29;20121;-77
2021/12/08 04:11:20;;;;;;;1.50;0.40;;;6.10;95.40;;;;;;4828590;29;20559;-79
2021/12/08 04:13:51;;;;;;;1.63;0.30;;;6.10;95.40;;;;;;4842207;29;20046;-78
2021/12/08 04:16:32;;;;;;;1.48;0.47;;;6.20;95.40;;;;;;4864539;29;20045;-78
2021/12/08 04:19:02;;;;;;;2.75;0.55;;;6.20;95.40;;;;;;4846232;29;20049;-77
2021/12/08 04:21:30;;;;;;;1.30;0.40;;;6.20;95.40;;;;;;4854436;29;20057;-78
2021/12/08 04:23:57;;;;;;;0.75;0.32;;;6.30;95.40;;;;;;4854259;29;20072;-79
2021/12/08 04:26:38;;;;;;;1.27;0.50;;;6.30;95.40;;;;;;4863026;29;20606;-78
2021/12/08 04:29:08;;;;;;;1.20;0.28;;;6.30;95.40;;;;;;4848155;29;20118;-78
2021/12/08 04:31:39;;;;;;;1.42;0.40;;;6.30;95.30;;;;;;4832375;29;20057;-79
2021/12/08 04:34:13;;;;;;;0.60;0.30;;;6.40;95.30;;;;;;4845053;29;20042;-79
2021/12/08 04:36:46;;;;;;;1.95;0.50;;;6.40;95.60;;;;;;4861237;29;20639;-79
2021/12/08 04:39:48;;;;;;;2.65;0.50;;;6.40;95.30;;;;;;4843397;29;20380;-78
2021/12/08 04:42:21;;;;;;;2.05;0.57;;;6.40;95.30;;;;;;4853001;29;20050;-79
2021/12/08 04:44:56;;;;;;;2.80;0.50;;;6.40;95.30;;;;;;4845925;29;20050;-79
2021/12/08 04:47:35;;;;;;;2.60;0.63;;;6.40;95.30;;;;;;4818311;29;20102;-79
2021/12/08 04:53:13;;;;;;;2.15;0.50;;;6.40;95.20;;;;;;4846386;29;20056;-79
2021/12/08 05:01:25;;;;;;;5.53;1.67;;;6.30;95.30;;;;;;4833235;29;20109;-78
2021/12/08 05:06:59;;;;;;;2.03;0.40;;;6.10;95.30;;;;;;4847442;29;20652;-78
2021/12/08 05:09:37;;;;;;;1.88;0.57;;;6.10;95.30;;;;;;4861202;29;20086;-78
2021/12/08 05:12:19;;;;;;;2.63;0.40;;;6.00;95.30;;;;;;4832193;29;20161;-78
2021/12/08 05:14:52;;;;;;;2.65;0.50;;;5.90;95.40;;;;;;4866047;29;20054;-79
2021/12/08 05:17:30;;;;;;;1.30;0.30;;;5.90;95.40;;;;;;4861285;29;20053;-80
2021/12/08 05:20:03;;;;;;;0.63;0.30;;;5.80;95.40;;;;;;4846079;29;20179;-79
2021/12/08 05:22:37;;;;;;;1.50;0.30;;;5.70;95.40;;;;;;4838535;29;20121;-78
2021/12/08 05:25:09;;;;;;;1.55;0.30;;;5.70;95.50;;;;;;4848177;29;20109;-78
2021/12/08 05:27:46;;;;;;;1.10;0.43;;;5.60;95.50;;;;;;4832399;29;20581;-78
2021/12/08 05:30:19;;;;;;;1.23;0.30;;;5.60;95.60;;;;;;4848203;29;20054;-79
2021/12/08 05:32:49;;;;;;;1.88;0.40;;;5.70;95.70;;;;;;4843367;29;20046;-79
2021/12/08 05:35:18;;;;;;;1.25;0.40;;;5.70;95.60;;;;;;4845356;29;20080;-78
2021/12/08 05:37:45;;;;;;;2.30;0.40;;;5.80;95.70;;;;;;4847173;29;20054;-78
2021/12/08 05:40:19;;;;;;;2.00;0.40;;;5.80;95.50;;;;;;4827555;29;20054;-78
2021/12/08 05:42:46;;;;;;;2.08;0.60;;;5.90;95.50;;;;;;4852325;29;20445;-78
2021/12/08 05:45:16;;;;;;;3.25;0.60;;;5.90;95.40;;;;;;4827994;29;20111;-79
2021/12/08 05:47:46;;;;;;;2.50;0.50;;;5.90;95.40;;;;;;4845648;29;20423;-78
2021/12/08 05:50:25;;;;;;;3.15;0.63;;;5.90;95.40;;;;;;4835816;29;20050;-78
2021/12/08 05:52:54;;;;;;;1.20;0.40;;;5.90;95.30;;;;;;4847424;29;20554;-78
2021/12/08 05:55:21;;;;;;;3.05;0.55;;;5.90;95.30;;;;;;4844910;29;20133;-79
2021/12/08 05:57:51;;;;;;;3.03;0.55;;;5.80;95.30;;;;;;4848353;29;20053;-78
2021/12/08 06:00:29;;;;;;;1.63;0.40;;;5.80;95.30;;;;;;4830257;29;20125;-79
2021/12/08 06:02:56;;;;;;;1.50;0.43;;;5.70;95.30;;;;;;4847143;29;20486;-78
2021/12/08 06:05:27;;;;;;;2.50;0.40;;;5.70;95.40;;;;;;4833090;29;20088;-79
2021/12/08 06:07:55;;;;;;;3.45;0.50;;;5.60;95.40;;;;;;4862273;29;20049;-79
2021/12/08 06:10:29;;;;;;;1.40;0.35;;;5.60;95.40;;;;;;4845265;29;20049;-79
2021/12/08 06:12:57;;;;;;;3.75;0.40;;;5.50;95.40;;;;;;4832451;29;20061;-78
2021/12/08 06:15:24;;;;;;;2.50;0.50;;;5.50;95.40;;;;;;4841486;29;20127;-78
2021/12/08 06:17:52;;;;;;;1.30;0.30;;;5.40;95.50;;;;;;4837160;29;20050;-78
2021/12/08 06:20:20;;;;;;;1.45;0.30;;;5.40;95.50;;;;;;4828749;29;20815;-78
2021/12/08 06:22:51;;;;;;;2.63;0.40;;;5.40;95.50;;;;;;4865814;29;20124;-78
2021/12/08 06:25:20;;;;;;;1.08;0.32;;;5.40;95.50;;;;;;4851782;29;20065;-79
2021/12/08 06:27:48;;;;;;;1.45;0.30;;;5.40;95.50;;;;;;4816930;29;20050;-79
2021/12/08 06:30:19;;;;;;;1.65;0.40;;;5.40;95.50;;;;;;4817450;29;20050;-78
2021/12/08 06:32:47;;;;;;;3.13;0.77;;;5.30;95.50;;;;;;4850157;29;20050;-77
2021/12/08 06:35:24;;;;;;;1.50;0.40;;;5.30;95.50;;;;;;4849726;29;20400;-77
2021/12/08 06:37:52;;;;;;;1.40;0.30;;;5.40;95.50;;;;;;4836130;29;20427;-77
2021/12/08 06:40:44;;;;;;;2.47;0.40;;;5.40;95.50;;;;;;4830835;29;20041;-77
2021/12/08 06:43:15;;;;;;;2.70;0.32;;;5.40;95.40;;;;;;4842300;29;20048;-79
2021/12/08 06:45:48;;;;;;;3.55;0.30;;;5.40;95.40;;;;;;4861056;29;20475;-80
2021/12/08 06:48:20;;;;;;;1.45;0.32;;;5.50;95.40;;;;;;4835603;29;20064;-80
2021/12/08 06:50:52;;;;;;;2.78;0.40;;;5.50;95.30;;;;;;4846234;29;20082;-81
2021/12/08 06:53:19;;;;;;;1.23;0.30;;;5.40;95.30;;;;;;4852889;29;20057;-82
2021/12/08 06:55:57;;;;;;;2.47;0.60;;;5.40;95.30;;;;;;4844036;29;20128;-81
2021/12/08 06:58:32;;;;;;;2.77;0.27;;;5.50;95.30;;;;;;4851942;29;20058;-80
2021/12/08 07:09:25;;;;;;;2.75;0.30;;;5.50;95.10;;;;;;4844918;29;20630;-82
2021/12/08 07:11:55;;;;;;;2.60;0.45;;;5.50;95.10;;;;;;4837785;29;20061;-84
2021/12/08 07:14:25;;;;;;;2.17;0.50;;;5.40;95.10;;;;;;4852937;29;20050;-77
2021/12/08 07:16:56;;;;;;;3.58;0.50;;;5.40;95.10;;;;;;4829894;29;20042;-77
2021/12/08 07:19:42;;;;;;;3.78;0.82;;;5.40;95.10;;;;;;4844733;29;20447;-83
2021/12/08 07:22:13;;;;;;;6.13;0.77;;;5.40;95.00;;;;;;4838801;29;20106;-83
2021/12/08 07:24:44;;;;;;;2.58;0.50;;;5.40;95.00;;;;;;4828364;29;20062;-79
2021/12/08 07:27:17;;;;;;;3.72;0.60;;;5.40;94.90;;;;;;4843611;29;20106;-81
2021/12/08 07:29:48;;;;;;;2.58;0.50;;;5.40;94.90;;;;;;4835082;29;20078;-81
2021/12/08 07:32:25;;;;;;;1.75;0.63;;;5.40;95.00;;;;;;4841072;29;20169;-80
2021/12/08 07:34:54;;;;;;;3.35;0.52;;;5.30;94.90;;;;;;4860770;29;20057;-79
2021/12/08 07:37:25;;;;;;;2.92;0.52;;;5.30;95.00;;;;;;4841230;29;20042;-82
2021/12/08 07:39:59;;;;;;;3.92;0.60;;;5.20;94.90;;;;;;4842712;29;20049;-80
2021/12/08 07:42:34;;;;;;;3.20;0.63;;;5.20;94.90;;;;;;4840705;29;20109;-78
2021/12/08 07:45:06;;;;;;;1.00;0.40;;;5.20;94.90;;;;;;4843017;29;21389;-76
2021/12/08 07:47:37;;;;;;;;;;;5.20;94.90;;;;;;4840681;29;20045;-76
2021/12/08 07:50:23;;;;;;;4.03;0.50;;;5.20;94.90;;;;;;4850671;29;20401;-76
2021/12/08 07:52:52;;;;;;;4.55;0.68;;;5.10;95.00;;;;;;4856589;29;20058;-76
2021/12/08 07:55:44;;;;;;;1.90;0.40;;;5.10;94.90;;;;;;4841708;29;20068;-76
2021/12/08 07:58:14;;;;;;;2.55;0.50;;;5.10;94.90;;;;;;4839710;29;20805;-75
2021/12/08 08:01:01;;;;;;;4.82;0.80;;;5.10;95.00;;;;;;4826939;29;20058;-75
2021/12/08 08:03:32;;;;;;;1.92;0.50;;;5.10;94.90;;;;;;4827611;29;20061;-74
2021/12/08 08:06:06;;;;;;;1.90;0.40;;;5.10;94.90;;;;;;4855803;29;20068;-75
2021/12/08 08:08:34;;;;;;;5.05;0.40;;;5.10;95.00;;;;;;4845266;29;20116;-76
2021/12/08 08:11:08;;;;;;;4.03;0.60;;;5.10;95.00;;;;;;4811914;29;20064;-75
2021/12/08 08:13:36;;;;;;;4.60;0.98;;;5.10;95.00;;;;;;4842381;29;20053;-75
2021/12/08 08:16:09;;;;;;;4.20;0.60;;;5.20;95.00;;;;;;4851696;29;20050;-76
2021/12/08 08:18:41;;;;;;;4.38;0.65;;;5.20;94.90;;;;;;4845672;29;20082;-76
2021/12/08 08:21:30;;;;;;;2.60;0.45;;;5.30;94.90;;;;;;4845980;29;20054;-79
2021/12/08 08:24:00;;;;;;;3.17;0.75;;;5.40;94.80;;;;;;4848210;29;20050;-79
2021/12/08 08:26:30;;;;;;;5.13;0.70;;;5.40;94.80;;;;;;4844723;29;20060;-80
2021/12/08 08:28:58;;;;;;;2.65;0.90;;;5.40;94.70;;;;;;4835230;29;20057;-79
2021/12/08 08:31:35;;;;;;;2.65;0.90;;;5.50;94.60;;;;;;4845014;29;20053;-79
2021/12/08 08:34:04;;;;;;;4.85;1.35;;;5.50;94.50;;;;;;4844003;29;20058;-79
2021/12/08 08:36:35;;;;;;;7.88;1.33;;;5.60;94.40;;;;;;4847937;29;20114;-78
2021/12/08 08:39:16;;;;;;;6.60;1.30;;;5.60;94.40;;;;;;4846229;29;20092;-80
2021/12/08 08:41:54;;;;;;;3.60;0.65;;;5.60;94.40;;;;;;4843169;29;20066;-80
2021/12/08 08:44:39;;;;;;;6.28;1.40;;;5.60;94.30;;;;;;4842654;29;20050;-79
2021/12/08 08:47:15;;;;;;;4.70;0.70;;;5.70;94.20;;;;;;4846409;29;20057;-79
2021/12/08 08:49:43;;;;;;;6.25;0.95;;;5.70;94.30;;;;;;4847704;29;20042;-82
2021/12/08 08:52:13;;;;;;;3.95;0.65;;;5.70;94.20;;;;;;4830766;29;20046;-81
2021/12/08 08:54:44;;;;;;;;;;;5.70;94.20;;;;;;4854426;29;20064;-80
2021/12/08 08:57:18;;;;;;;5.72;0.80;;;5.70;94.20;;;;;;4859233;29;19942;-78
2021/12/08 08:59:49;;;;;;;4.80;0.70;;;5.70;94.10;;;;;;4846404;29;20420;-77
2021/12/08 09:02:22;;;;;;;3.47;0.75;;;5.80;93.90;;;;;;4838280;29;20049;-77
2021/12/08 09:04:57;;;;;;;4.28;0.77;;;5.80;93.90;;;;;;4837367;29;20058;-76
2021/12/08 09:07:41;;;;;;;3.05;0.63;;;5.80;93.90;;;;;;4848257;29;20054;-81
2021/12/08 09:10:37;;;;;;;2.60;0.63;;;5.80;93.90;;;;;;4860581;29;20065;-81
2021/12/08 09:13:15;;;;;;;3.75;1.35;;;5.70;93.70;;;;;;4847901;29;20097;-80
2021/12/08 09:15:52;;;;;;;2.90;0.60;;;5.60;93.70;;;;;;4851845;29;20076;-80
2021/12/08 09:18:24;;;;;;;4.45;0.57;;;5.60;93.80;;;;;;4846920;29;20072;-80
2021/12/08 09:21:00;;;;;;;5.05;0.80;;;5.50;93.90;;;;;;4844426;29;20042;-78
2021/12/08 09:23:37;;;;;;;4.20;0.90;;;5.50;93.90;;;;;;4845859;29;20117;-78
2021/12/08 09:26:10;;;;;;;3.83;1.30;;;5.40;93.90;;;;;;4861734;29;20054;-81
2021/12/08 09:28:55;;;;;;;2.47;0.45;;;5.40;93.90;;;;;;4851003;29;20084;-77
2021/12/08 09:31:30;;;;;;;3.72;0.73;;;5.40;93.90;;;;;;4843872;29;20495;-79
2021/12/08 09:34:28;;;;;;;3.20;0.77;;;5.40;93.90;;;;;;4827691;29;20403;-80
2021/12/08 09:37:00;;;;;;;4.00;1.13;;;5.40;93.80;;;;;;4866871;29;20049;-80
2021/12/08 09:39:34;;;;;;;2.20;0.80;;;5.40;93.80;;;;;;4846954;29;20414;-80
2021/12/08 09:42:13;;;;;;;2.03;0.80;;;5.40;93.90;;;;;;4843012;29;20058;-80
2021/12/08 09:44:58;;;;;;;3.38;0.80;;;5.40;93.90;;;;;;4837901;29;20069;-78
2021/12/08 09:47:37;;;;;;;6.15;0.98;;;5.40;93.90;;;;;;4852809;29;20050;-79
2021/12/08 09:50:08;;;;;;;8.10;1.13;;;5.40;93.80;;;;;;4829509;29;20050;-81
2021/12/08 09:52:36;;;;;;;3.33;0.80;;;5.40;93.70;;;;;;4845383;29;20067;-80
2021/12/08 09:55:05;;;;;;;4.38;0.90;;;5.40;93.70;;;;;;4848287;29;20128;-81
2021/12/08 09:57:32;;;;;;;2.85;0.70;;;5.40;93.70;;;;;;4827745;29;20069;-82
2021/12/08 10:00:00;;;;;;;4.38;1.40;;;5.40;93.80;;;;;;4813137;29;20042;-87
2021/12/08 10:02:35;;;;;;;3.03;0.80;;;5.40;93.70;;;;;;4837313;29;20060;-87
2021/12/08 10:05:09;;;;;;;3.45;1.33;;;5.50;93.60;;;;;;4829061;29;20109;-82
2021/12/08 10:07:37;;;;;;;2.65;0.70;;;5.50;93.50;;;;;;4847083;29;20088;-80
2021/12/08 10:10:08;;;;;;;2.97;1.35;;;5.50;93.50;;;;;;4859192;29;20686;-78
2021/12/08 10:12:37;;;;;;;4.60;1.20;;;5.60;93.50;;;;;;4844675;29;20117;-82
2021/12/08 10:15:07;;;;;;;2.50;1.45;;;5.60;93.50;;;;;;4832398;29;20057;-79
2021/12/08 10:17:37;;;;;;;7.55;1.25;;;5.60;93.50;;;;;;4845622;29;20387;-79
2021/12/08 10:20:07;;;;;;;3.13;0.90;;;5.60;93.40;;;;;;4857033;29;20571;-80
2021/12/08 10:22:36;;;;;;;4.45;1.40;;;5.60;93.40;;;;;;4848107;29;20076;-80
2021/12/08 10:25:22;;;;;;;2.10;0.90;;;5.60;93.50;;;;;;4842966;29;20076;-77
2021/12/08 10:28:29;;;;;;;3.40;1.23;;;5.70;93.30;;;;;;4849414;29;20066;-76
2021/12/08 10:30:58;;;;;;;2.20;0.77;;;5.70;93.30;;;;;;4831051;29;20073;-78
2021/12/08 10:33:36;;;;;;;2.08;0.70;;;5.60;93.30;;;;;;4867439;29;20066;-80
2021/12/08 10:36:23;;;;;;;3.30;0.80;;;5.60;93.30;;;;;;4847141;29;20057;-77
2021/12/08 10:38:50;;;;;;;5.80;0.93;;;5.70;93.30;;;;;;4838163;29;20681;-78
2021/12/08 10:41:17;;;;;;;3.00;0.82;;;5.70;93.20;;;;;;4846943;29;20496;-76
2021/12/08 10:43:58;;;;;;;2.97;0.95;;;5.70;93.20;;;;;;4810576;29;20076;-74
2021/12/08 10:46:37;;;;;;;4.15;0.77;;;5.70;93.10;;;;;;4840687;29;20046;-79
2021/12/08 10:49:18;;;;;;;3.65;0.73;;;5.70;93.00;;;;;;4843594;29;20073;-79
2021/12/08 10:54:43;;;;;;;3.35;0.60;;;5.80;92.90;;;;;;4845327;29;20057;-76
2021/12/08 10:57:24;;;;;;;1.95;0.50;;;5.80;92.90;;;;;;4851977;29;20075;-79
2021/12/08 10:59:57;;;;;;;3.20;0.47;;;5.90;92.90;;;;;;4843052;29;20049;-75
2021/12/08 11:02:43;;;;;;;2.45;0.45;;;5.80;92.90;;;;;;4844042;29;20049;-77
2021/12/08 11:05:25;;;;;;;1.75;0.45;;;5.90;92.90;;;;;;4845997;29;20058;-78
2021/12/08 11:08:06;;;;;;;1.88;0.30;;;5.90;92.90;;;;;;4851664;29;20498;-78
2021/12/08 11:10:39;;;;;;;2.30;0.73;;;5.90;93.00;;;;;;4827805;29;20065;-77
2021/12/08 11:13:07;;;;;;;;;;;6.00;93.00;;;;;;4827769;29;20067;-73
2021/12/08 11:15:35;;;;;;;2.97;0.50;;;5.90;93.00;;;;;;4829452;29;20314;-74
2021/12/08 11:18:14;;;;;;;3.22;0.80;;;6.00;92.90;;;;;;4843298;29;20037;-74
2021/12/08 11:20:58;;;;;;;3.80;0.60;;;6.10;92.80;;;;;;4830673;29;20164;-74
2021/12/08 11:23:45;;;;;;;2.63;0.60;;;6.10;92.70;;;;;;4839500;29;20046;-74
2021/12/08 11:26:22;;;;;;;2.55;0.60;;;6.20;92.70;;;;;;4836639;29;20097;-74
2021/12/08 11:29:03;;;;;;;2.40;0.50;;;6.20;92.70;;;;;;4845736;29;20125;-74
2021/12/08 11:31:35;;;;;;;4.68;0.90;;;6.30;92.70;;;;;;4846256;29;20448;-75
2021/12/08 11:34:06;;;;;;;2.63;0.70;;;6.30;92.70;;;;;;4848870;29;20428;-76
2021/12/08 11:36:36;;;;;;;2.58;0.50;;;6.40;92.60;;;;;;4831506;29;20050;-76
2021/12/08 11:39:16;;;;;;;2.15;0.57;;;6.60;92.60;;;;;;4853684;29;20712;-80
2021/12/08 11:41:47;;;;;;;4.65;0.80;;;6.70;92.60;;;;;;4840160;29;20041;-82
2021/12/08 11:44:36;;;;;;;4.82;1.15;;;6.80;92.40;;;;;;4833005;29;20069;-84
2021/12/08 11:47:09;;;;;;;5.32;0.50;;;6.90;92.30;;;;;;4852013;29;20049;-85
2021/12/08 11:49:46;;;;;;;1.02;0.40;;;6.90;92.30;;;;;;4837998;29;20061;-77
2021/12/08 11:52:19;;;;;;;2.25;0.38;;;7.00;92.30;;;;;;4850637;29;20415;-83
2021/12/08 11:54:54;;;;;;;1.98;0.50;;;7.00;92.30;;;;;;4839770;29;20430;-85
2021/12/08 11:57:24;;;;;;;1.30;0.40;;;7.00;92.30;;;;;;4838831;29;20099;-81
2021/12/08 12:00:22;;;;;;;2.45;0.50;;;7.10;92.30;;;;;;4839620;29;20065;-85
2021/12/08 12:02:56;;;;;;;2.53;0.68;;;7.10;92.50;;;;;;4841081;29;20045;-77
2021/12/08 12:05:32;;;;;;;1.70;0.47;;;7.10;92.30;;;;;;4843893;29;20045;-75
2021/12/08 12:08:05;;;;;;;5.22;0.82;;;7.10;92.20;;;;;;4850503;29;20060;-74
2021/12/08 12:10:35;;;;;;;2.55;0.50;;;7.00;92.10;;;;;;4845576;29;20569;-75
2021/12/08 12:13:03;;;;;;;2.17;0.50;;;7.00;92.10;;;;;;4850220;29;20050;-78
2021/12/08 12:15:31;;;;;;;2.67;0.65;;;7.00;92.10;;;;;;4846529;29;20073;-76
2021/12/08 12:18:01;;;;;;;1.58;0.50;;;7.00;92.30;;;;;;4845685;29;20050;-77
2021/12/08 12:20:40;;;;;;;2.45;0.70;;;6.90;92.00;;;;;;4849381;29;20098;-79
2021/12/08 12:23:44;;;;;;;1.55;0.50;;;7.00;92.00;;;;;;4855113;29;20088;-79
2021/12/08 12:26:39;;;;;;;1.50;0.50;;;6.90;92.10;;;;;;4851810;29;21238;-81
2021/12/08 12:29:19;;;;;;;4.10;0.60;;;6.90;92.20;;;;;;4844153;29;20064;-79
2021/12/08 12:32:01;;;;;;;4.00;0.80;;;6.90;92.20;;;;;;4832093;29;20050;-77
2021/12/08 12:34:36;;;;;;;3.08;0.50;;;6.90;92.10;;;;;;4847697;29;20049;-81
2021/12/08 12:37:34;;;;;;;3.05;0.60;;;6.90;92.10;;;;;;4832816;29;21414;-80
2021/12/08 12:40:07;;;;;;;1.85;0.68;;;6.90;92.10;;;;;;4837532;29;20566;-75
2021/12/08 12:43:01;;;;;;;1.98;0.40;;;6.90;92.20;;;;;;4846916;29;20483;-76
2021/12/08 12:45:37;;;;;;;1.02;0.30;;;7.00;92.20;;;;;;4852238;29;20069;-74
2021/12/08 12:48:18;;;;;;;0.70;0.28;;;7.00;92.20;;;;;;4843020;29;20057;-75
2021/12/08 12:50:57;;;;;;;1.95;0.30;;;7.00;92.20;;;;;;4845423;29;20054;-76
2021/12/08 12:53:37;;;;;;;2.13;0.40;;;7.10;92.20;;;;;;4841235;29;20152;-77
2021/12/08 12:56:14;;;;;;;2.42;0.40;;;7.10;92.20;;;;;;4847236;29;20711;-74
2021/12/08 12:58:44;;;;;;;1.83;0.55;;;7.10;92.20;;;;;;4842720;29;20121;-73
2021/12/08 13:01:40;;;;;;;1.65;0.65;;;7.10;92.10;;;;;;4854082;29;20636;-75
2021/12/08 13:04:20;;;;;;;1.98;0.40;;;7.20;92.10;;;;;;4846245;29;20072;-75
2021/12/08 13:06:53;;;;;;;1.17;0.47;;;7.20;92.00;;;;;;4844565;29;20049;-74
2021/12/08 13:09:47;;;;;;;2.25;0.40;;;7.20;92.00;;;;;;4847544;29;20042;-76
2021/12/08 13:12:38;;;;;;;1.27;0.40;;;7.20;92.00;;;;;;4849080;29;20045;-74
2021/12/08 13:15:19;;;;;;;1.33;0.50;;;7.30;92.00;;;;;;4857770;29;20049;-74
2021/12/08 13:18:06;;;;;;;1.08;0.35;;;7.20;91.90;;;;;;4844370;29;20053;-79
2021/12/08 13:20:59;;;;;;;1.48;0.43;;;7.20;91.90;;;;;;4845627;29;20066;-75
2021/12/08 13:23:30;;;;;;;1.13;0.43;;;7.10;92.00;;;;;;4850458;29;20057;-75
2021/12/08 13:26:09;;;;;;;2.20;0.60;;;7.00;92.00;;;;;;4859422;29;20054;-78
2021/12/08 13:28:57;;;;;;;1.00;0.45;;;7.00;92.00;;;;;;4843483;29;20045;-74
2021/12/08 13:34:02;;;;;;;1.30;0.60;;;7.10;92.00;;;;;;4845205;29;20137;-77
2021/12/08 13:36:47;;;;;;;2.33;0.70;;;7.10;91.90;;;;;;4851356;29;20041;-76
2021/12/08 13:39:29;;;;;;;2.88;0.70;;;7.10;91.90;;;;;;4844151;29;20042;-77
2021/12/08 13:42:30;;;;;;;1.80;0.75;;;7.10;92.10;;;;;;4845621;29;20556;-77
2021/12/08 13:44:58;;;;;;;1.30;0.60;;;7.10;91.80;;;;;;4842981;29;20139;-74
2021/12/08 13:47:25;;;;;;;1.83;0.50;;;7.10;91.80;;;;;;4850437;29;20085;-77
2021/12/08 13:50:13;;;;;;;3.30;0.80;;;7.10;91.90;;;;;;4845078;29;20046;-77
2021/12/08 13:52:44;;;;;;;2.78;0.65;;;7.10;91.80;;;;;;4835677;29;20110;-76
2021/12/08 13:55:19;;;;;;;1.45;0.50;;;7.20;91.70;;;;;;4844307;29;20050;-76
2021/12/08 13:58:15;;;;;;;3.03;0.75;;;7.20;91.70;;;;;;4842496;29;20125;-77
2021/12/08 14:00:59;;;;;;;2.45;0.60;;;7.20;91.60;;;;;;4835357;29;20061;-76
2021/12/08 14:03:40;;;;;;;1.55;0.43;;;7.20;91.60;;;;;;4842805;29;20073;-76
2021/12/08 14:06:09;;;;;;;1.42;0.47;;;7.20;91.60;;;;;;4839308;29;20060;-74
2021/12/08 14:08:40;;;;;;;3.40;0.70;;;7.20;91.60;;;;;;4840616;29;20060;-74
2021/12/08 14:11:23;;;;;;;2.63;0.95;;;7.10;91.60;;;;;;4841079;29;20057;-75
2021/12/08 14:13:52;;;;;;;3.00;0.57;;;7.00;91.40;;;;;;4828987;29;20058;-76
2021/12/08 14:16:25;;;;;;;3.28;0.45;;;6.90;91.50;;;;;;4842165;29;20044;-73
2021/12/08 14:18:58;;;;;;;2.97;0.60;;;6.80;91.60;;;;;;4840918;29;20057;-75